sensor_id;sensor_type;location;lat;lon;timestamp;P1;durP1;ratioP1;P2;durP2;ratioP2
10295;SDS011;5193;51.032;6.356;2022-07-23T00:02:16;5.00;;;4.30;;
10295;SDS011;5193;51.032;6.356;2022-07-23T00:04:42;5.87;;;4.43;;
10295;SDS011;5193;51.032;6.356;2022-07-23T00:07:07;4.87;;;4.37;;
10295;SDS011;5193;51.032;6.356;2022-07-23T00:09:33;5.73;;;4.40;;
10295;SDS011;5193;51.032;6.356;2022-07-23T00:11:59;5.57;;;4.23;;
10295;SDS011;5193;51.032;6.356;2022-07-23T00:14:24;8.93;;;4.57;;
10295;SDS011;5193;51.032;6.356;2022-07-23T00:16:50;7.33;;;4.60;;
10295;SDS011;5193;51.032;6.356;2022-07-23T00:19:15;4.47;;;4.07;;
10295;SDS011;5193;51.032;6.356;2022-07-23T00:21:41;5.50;;;5.00;;
10295;SDS011;5193;51.032;6.356;2022-07-23T00:24:06;6.53;;;4.33;;
10295;SDS011;5193;51.032;6.356;2022-07-23T00:26:32;5.20;;;4.70;;
10295;SDS011;5193;51.032;6.356;2022-07-23T00:28:58;4.60;;;4.10;;
10295;SDS011;5193;51.032;6.356;2022-07-23T00:31:23;7.03;;;4.10;;
10295;SDS011;5193;51.032;6.356;2022-07-23T00:33:49;5.73;;;4.07;;
10295;SDS011;5193;51.032;6.356;2022-07-23T00:36:15;5.03;;;4.10;;
10295;SDS011;5193;51.032;6.356;2022-07-23T00:38:40;7.23;;;4.67;;
10295;SDS011;5193;51.032;6.356;2022-07-23T00:41:06;6.83;;;4.17;;
10295;SDS011;5193;51.032;6.356;2022-07-23T00:43:32;5.70;;;4.20;;
10295;SDS011;5193;51.032;6.356;2022-07-23T00:45:57;5.13;;;4.40;;
10295;SDS011;5193;51.032;6.356;2022-07-23T00:48:23;5.33;;;4.03;;
10295;SDS011;5193;51.032;6.356;2022-07-23T00:50:48;8.37;;;4.07;;
10295;SDS011;5193;51.032;6.356;2022-07-23T00:53:14;9.47;;;4.17;;
10295;SDS011;5193;51.032;6.356;2022-07-23T00:55:40;5.37;;;3.60;;
10295;SDS011;5193;51.032;6.356;2022-07-23T00:58:06;5.47;;;3.33;;
10295;SDS011;5193;51.032;6.356;2022-07-23T01:00:33;3.77;;;3.40;;
10295;SDS011;5193;51.032;6.356;2022-07-23T01:02:59;5.23;;;3.53;;
10295;SDS011;5193;51.032;6.356;2022-07-23T01:05:24;5.40;;;3.67;;
10295;SDS011;5193;51.032;6.356;2022-07-23T01:07:51;4.57;;;3.53;;
10295;SDS011;5193;51.032;6.356;2022-07-23T01:10:17;5.20;;;3.77;;
10295;SDS011;5193;51.032;6.356;2022-07-23T01:15:24;3.97;;;3.30;;
10295;SDS011;5193;51.032;6.356;2022-07-23T01:17:50;4.33;;;2.83;;
10295;SDS011;5193;51.032;6.356;2022-07-23T01:20:16;3.50;;;3.20;;
10295;SDS011;5193;51.032;6.356;2022-07-23T01:22:42;3.90;;;3.10;;
10295;SDS011;5193;51.032;6.356;2022-07-23T01:25:08;5.83;;;3.90;;
10295;SDS011;5193;51.032;6.356;2022-07-23T01:27:33;4.53;;;3.67;;
10295;SDS011;5193;51.032;6.356;2022-07-23T01:30:00;4.67;;;3.40;;
10295;SDS011;5193;51.032;6.356;2022-07-23T01:32:26;6.67;;;3.60;;
10295;SDS011;5193;51.032;6.356;2022-07-23T01:34:51;5.13;;;4.07;;
10295;SDS011;5193;51.032;6.356;2022-07-23T01:37:17;6.47;;;4.30;;
10295;SDS011;5193;51.032;6.356;2022-07-23T01:39:42;4.67;;;4.27;;
10295;SDS011;5193;51.032;6.356;2022-07-23T01:42:08;5.33;;;4.23;;
10295;SDS011;5193;51.032;6.356;2022-07-23T01:44:34;4.00;;;3.60;;
10295;SDS011;5193;51.032;6.356;2022-07-23T01:46:59;4.80;;;3.67;;
10295;SDS011;5193;51.032;6.356;2022-07-23T01:49:25;4.60;;;4.17;;
10295;SDS011;5193;51.032;6.356;2022-07-23T01:51:51;6.93;;;3.83;;
10295;SDS011;5193;51.032;6.356;2022-07-23T01:54:29;4.40;;;3.87;;
10295;SDS011;5193;51.032;6.356;2022-07-23T01:56:55;5.73;;;4.47;;
10295;SDS011;5193;51.032;6.356;2022-07-23T01:59:22;7.43;;;4.50;;
10295;SDS011;5193;51.032;6.356;2022-07-23T02:01:47;8.80;;;4.83;;
10295;SDS011;5193;51.032;6.356;2022-07-23T02:04:15;8.57;;;5.10;;
10295;SDS011;5193;51.032;6.356;2022-07-23T02:06:48;7.67;;;4.57;;
10295;SDS011;5193;51.032;6.356;2022-07-23T02:09:14;6.87;;;4.43;;
10295;SDS011;5193;51.032;6.356;2022-07-23T02:11:40;4.20;;;3.80;;
10295;SDS011;5193;51.032;6.356;2022-07-23T02:14:06;7.40;;;4.17;;
10295;SDS011;5193;51.032;6.356;2022-07-23T02:16:32;8.20;;;3.73;;
10295;SDS011;5193;51.032;6.356;2022-07-23T02:18:57;6.10;;;3.60;;
10295;SDS011;5193;51.032;6.356;2022-07-23T02:21:23;3.40;;;2.73;;
10295;SDS011;5193;51.032;6.356;2022-07-23T02:23:49;6.07;;;2.70;;
10295;SDS011;5193;51.032;6.356;2022-07-23T02:26:14;3.00;;;2.80;;
10295;SDS011;5193;51.032;6.356;2022-07-23T02:28:40;3.77;;;3.10;;
10295;SDS011;5193;51.032;6.356;2022-07-23T02:31:06;5.60;;;3.47;;
10295;SDS011;5193;51.032;6.356;2022-07-23T02:33:32;3.17;;;2.87;;
10295;SDS011;5193;51.032;6.356;2022-07-23T02:35:58;2.77;;;2.57;;
10295;SDS011;5193;51.032;6.356;2022-07-23T02:38:23;3.77;;;2.60;;
10295;SDS011;5193;51.032;6.356;2022-07-23T02:40:49;3.43;;;2.50;;
10295;SDS011;5193;51.032;6.356;2022-07-23T02:43:15;2.50;;;2.30;;
10295;SDS011;5193;51.032;6.356;2022-07-23T02:45:40;4.77;;;3.00;;
10295;SDS011;5193;51.032;6.356;2022-07-23T02:48:06;4.37;;;2.87;;
10295;SDS011;5193;51.032;6.356;2022-07-23T02:50:31;2.60;;;2.40;;
10295;SDS011;5193;51.032;6.356;2022-07-23T02:52:57;2.33;;;2.10;;
10295;SDS011;5193;51.032;6.356;2022-07-23T02:55:23;2.40;;;2.20;;
10295;SDS011;5193;51.032;6.356;2022-07-23T02:57:48;2.70;;;2.50;;
10295;SDS011;5193;51.032;6.356;2022-07-23T03:00:14;3.20;;;2.90;;
10295;SDS011;5193;51.032;6.356;2022-07-23T03:02:40;3.43;;;3.13;;
10295;SDS011;5193;51.032;6.356;2022-07-23T03:05:05;3.70;;;3.37;;
10295;SDS011;5193;51.032;6.356;2022-07-23T03:07:31;3.50;;;3.20;;
10295;SDS011;5193;51.032;6.356;2022-07-23T03:09:57;3.13;;;2.83;;
10295;SDS011;5193;51.032;6.356;2022-07-23T03:12:22;3.60;;;3.30;;
10295;SDS011;5193;51.032;6.356;2022-07-23T03:14:48;3.80;;;3.23;;
10295;SDS011;5193;51.032;6.356;2022-07-23T03:17:13;6.67;;;3.50;;
10295;SDS011;5193;51.032;6.356;2022-07-23T03:19:39;4.67;;;3.60;;
10295;SDS011;5193;51.032;6.356;2022-07-23T03:22:05;3.30;;;2.70;;
10295;SDS011;5193;51.032;6.356;2022-07-23T03:24:32;2.93;;;2.23;;
10295;SDS011;5193;51.032;6.356;2022-07-23T03:27:16;2.20;;;2.00;;
10295;SDS011;5193;51.032;6.356;2022-07-23T03:29:42;3.10;;;1.50;;
10295;SDS011;5193;51.032;6.356;2022-07-23T03:32:08;3.73;;;1.77;;
10295;SDS011;5193;51.032;6.356;2022-07-23T03:34:33;1.63;;;1.53;;
10295;SDS011;5193;51.032;6.356;2022-07-23T03:36:59;6.67;;;2.00;;
10295;SDS011;5193;51.032;6.356;2022-07-23T03:39:25;3.97;;;2.60;;
10295;SDS011;5193;51.032;6.356;2022-07-23T03:41:50;2.83;;;1.93;;
10295;SDS011;5193;51.032;6.356;2022-07-23T03:44:16;3.17;;;2.60;;
10295;SDS011;5193;51.032;6.356;2022-07-23T03:46:41;3.07;;;2.00;;
10295;SDS011;5193;51.032;6.356;2022-07-23T03:49:07;2.27;;;2.07;;
10295;SDS011;5193;51.032;6.356;2022-07-23T03:51:32;4.13;;;1.90;;
10295;SDS011;5193;51.032;6.356;2022-07-23T03:53:58;2.43;;;1.67;;
10295;SDS011;5193;51.032;6.356;2022-07-23T03:56:24;3.17;;;1.53;;
10295;SDS011;5193;51.032;6.356;2022-07-23T03:58:49;3.43;;;1.63;;
10295;SDS011;5193;51.032;6.356;2022-07-23T04:01:15;4.03;;;1.70;;
10295;SDS011;5193;51.032;6.356;2022-07-23T04:03:40;2.60;;;2.27;;
10295;SDS011;5193;51.032;6.356;2022-07-23T04:06:06;2.30;;;2.07;;
10295;SDS011;5193;51.032;6.356;2022-07-23T04:08:32;2.10;;;1.90;;
10295;SDS011;5193;51.032;6.356;2022-07-23T04:10:58;5.20;;;2.27;;
10295;SDS011;5193;51.032;6.356;2022-07-23T04:13:23;4.60;;;2.20;;
10295;SDS011;5193;51.032;6.356;2022-07-23T04:15:49;4.53;;;2.00;;
10295;SDS011;5193;51.032;6.356;2022-07-23T04:18:15;4.27;;;2.00;;
10295;SDS011;5193;51.032;6.356;2022-07-23T04:20:46;2.37;;;1.60;;
10295;SDS011;5193;51.032;6.356;2022-07-23T04:23:11;2.47;;;1.47;;
10295;SDS011;5193;51.032;6.356;2022-07-23T04:25:37;2.40;;;1.30;;
10295;SDS011;5193;51.032;6.356;2022-07-23T04:28:03;2.80;;;1.40;;
10295;SDS011;5193;51.032;6.356;2022-07-23T04:30:29;3.63;;;1.50;;
10295;SDS011;5193;51.032;6.356;2022-07-23T04:32:54;1.50;;;1.40;;
10295;SDS011;5193;51.032;6.356;2022-07-23T04:35:20;1.93;;;1.40;;
10295;SDS011;5193;51.032;6.356;2022-07-23T04:37:46;3.97;;;1.80;;
10295;SDS011;5193;51.032;6.356;2022-07-23T04:40:12;2.67;;;2.13;;
10295;SDS011;5193;51.032;6.356;2022-07-23T04:42:37;7.10;;;1.93;;
10295;SDS011;5193;51.032;6.356;2022-07-23T04:45:03;3.87;;;2.37;;
10295;SDS011;5193;51.032;6.356;2022-07-23T04:47:30;2.60;;;2.40;;
10295;SDS011;5193;51.032;6.356;2022-07-23T04:49:55;3.87;;;2.70;;
10295;SDS011;5193;51.032;6.356;2022-07-23T04:52:22;2.73;;;2.50;;
10295;SDS011;5193;51.032;6.356;2022-07-23T04:54:47;4.63;;;2.27;;
10295;SDS011;5193;51.032;6.356;2022-07-23T04:57:13;3.47;;;2.10;;
10295;SDS011;5193;51.032;6.356;2022-07-23T04:59:38;4.37;;;2.57;;
10295;SDS011;5193;51.032;6.356;2022-07-23T05:02:04;3.77;;;2.53;;
10295;SDS011;5193;51.032;6.356;2022-07-23T05:04:30;4.87;;;2.87;;
10295;SDS011;5193;51.032;6.356;2022-07-23T05:06:56;4.43;;;2.73;;
10295;SDS011;5193;51.032;6.356;2022-07-23T05:09:22;6.73;;;3.33;;
10295;SDS011;5193;51.032;6.356;2022-07-23T05:11:47;7.17;;;3.43;;
10295;SDS011;5193;51.032;6.356;2022-07-23T05:14:13;5.53;;;3.03;;
10295;SDS011;5193;51.032;6.356;2022-07-23T05:16:39;8.03;;;3.83;;
10295;SDS011;5193;51.032;6.356;2022-07-23T05:19:05;7.87;;;4.07;;
10295;SDS011;5193;51.032;6.356;2022-07-23T05:21:30;8.47;;;4.23;;
10295;SDS011;5193;51.032;6.356;2022-07-23T05:23:56;14.30;;;11.70;;
10295;SDS011;5193;51.032;6.356;2022-07-23T05:26:22;19.60;;;14.70;;
10295;SDS011;5193;51.032;6.356;2022-07-23T05:28:47;17.80;;;13.80;;
10295;SDS011;5193;51.032;6.356;2022-07-23T05:31:13;17.03;;;13.93;;
10295;SDS011;5193;51.032;6.356;2022-07-23T05:33:39;14.90;;;11.60;;
10295;SDS011;5193;51.032;6.356;2022-07-23T05:36:04;13.30;;;11.37;;
10295;SDS011;5193;51.032;6.356;2022-07-23T05:38:31;14.43;;;10.57;;
10295;SDS011;5193;51.032;6.356;2022-07-23T05:40:57;13.23;;;11.83;;
10295;SDS011;5193;51.032;6.356;2022-07-23T05:43:23;13.50;;;10.27;;
10295;SDS011;5193;51.032;6.356;2022-07-23T05:45:49;12.67;;;9.87;;
10295;SDS011;5193;51.032;6.356;2022-07-23T05:48:14;13.77;;;10.17;;
10295;SDS011;5193;51.032;6.356;2022-07-23T05:50:40;17.50;;;11.00;;
10295;SDS011;5193;51.032;6.356;2022-07-23T05:53:05;14.83;;;11.43;;
10295;SDS011;5193;51.032;6.356;2022-07-23T05:55:31;16.80;;;12.10;;
10295;SDS011;5193;51.032;6.356;2022-07-23T05:57:57;23.70;;;15.93;;
10295;SDS011;5193;51.032;6.356;2022-07-23T06:00:23;32.67;;;24.03;;
10295;SDS011;5193;51.032;6.356;2022-07-23T06:02:49;32.63;;;25.63;;
10295;SDS011;5193;51.032;6.356;2022-07-23T06:05:14;30.90;;;22.47;;
10295;SDS011;5193;51.032;6.356;2022-07-23T06:07:40;26.63;;;22.10;;
10295;SDS011;5193;51.032;6.356;2022-07-23T06:10:05;30.10;;;20.30;;
10295;SDS011;5193;51.032;6.356;2022-07-23T06:12:31;25.43;;;19.23;;
10295;SDS011;5193;51.032;6.356;2022-07-23T06:14:57;26.23;;;18.03;;
10295;SDS011;5193;51.032;6.356;2022-07-23T06:17:23;29.83;;;17.50;;
10295;SDS011;5193;51.032;6.356;2022-07-23T06:19:48;32.43;;;23.87;;
10295;SDS011;5193;51.032;6.356;2022-07-23T06:22:14;29.80;;;22.20;;
10295;SDS011;5193;51.032;6.356;2022-07-23T06:24:39;31.97;;;24.27;;
10295;SDS011;5193;51.032;6.356;2022-07-23T06:27:05;35.53;;;26.30;;
10295;SDS011;5193;51.032;6.356;2022-07-23T06:29:31;34.37;;;25.77;;
10295;SDS011;5193;51.032;6.356;2022-07-23T06:31:56;39.00;;;27.83;;
10295;SDS011;5193;51.032;6.356;2022-07-23T06:34:22;39.47;;;29.10;;
10295;SDS011;5193;51.032;6.356;2022-07-23T06:36:47;33.20;;;21.57;;
10295;SDS011;5193;51.032;6.356;2022-07-23T06:39:13;25.20;;;17.97;;
10295;SDS011;5193;51.032;6.356;2022-07-23T06:41:39;22.07;;;15.37;;
10295;SDS011;5193;51.032;6.356;2022-07-23T06:44:04;22.10;;;14.87;;
10295;SDS011;5193;51.032;6.356;2022-07-23T06:46:30;22.13;;;15.63;;
10295;SDS011;5193;51.032;6.356;2022-07-23T06:48:56;24.10;;;15.03;;
10295;SDS011;5193;51.032;6.356;2022-07-23T06:51:21;25.93;;;16.23;;
10295;SDS011;5193;51.032;6.356;2022-07-23T06:53:47;20.57;;;15.30;;
10295;SDS011;5193;51.032;6.356;2022-07-23T06:56:13;23.67;;;13.50;;
10295;SDS011;5193;51.032;6.356;2022-07-23T06:58:38;20.47;;;13.37;;
10295;SDS011;5193;51.032;6.356;2022-07-23T07:01:04;20.03;;;12.67;;
10295;SDS011;5193;51.032;6.356;2022-07-23T07:03:29;19.80;;;12.83;;
10295;SDS011;5193;51.032;6.356;2022-07-23T07:05:55;20.63;;;13.03;;
10295;SDS011;5193;51.032;6.356;2022-07-23T07:08:22;18.07;;;12.47;;
10295;SDS011;5193;51.032;6.356;2022-07-23T07:10:48;20.53;;;12.13;;
10295;SDS011;5193;51.032;6.356;2022-07-23T07:13:14;19.20;;;13.50;;
10295;SDS011;5193;51.032;6.356;2022-07-23T07:15:39;18.90;;;13.00;;
10295;SDS011;5193;51.032;6.356;2022-07-23T07:18:05;22.20;;;13.97;;
10295;SDS011;5193;51.032;6.356;2022-07-23T07:20:30;20.10;;;12.83;;
10295;SDS011;5193;51.032;6.356;2022-07-23T07:22:56;22.30;;;14.10;;
10295;SDS011;5193;51.032;6.356;2022-07-23T07:25:22;19.87;;;13.60;;
10295;SDS011;5193;51.032;6.356;2022-07-23T07:27:47;24.07;;;14.53;;
10295;SDS011;5193;51.032;6.356;2022-07-23T07:30:13;21.73;;;13.40;;
10295;SDS011;5193;51.032;6.356;2022-07-23T07:32:39;20.60;;;14.33;;
10295;SDS011;5193;51.032;6.356;2022-07-23T07:35:05;19.73;;;14.23;;
10295;SDS011;5193;51.032;6.356;2022-07-23T07:37:31;23.27;;;14.20;;
10295;SDS011;5193;51.032;6.356;2022-07-23T07:39:57;20.77;;;13.80;;
10295;SDS011;5193;51.032;6.356;2022-07-23T07:42:23;23.60;;;14.70;;
10295;SDS011;5193;51.032;6.356;2022-07-23T07:44:48;22.67;;;13.37;;
10295;SDS011;5193;51.032;6.356;2022-07-23T07:47:14;23.70;;;13.50;;
10295;SDS011;5193;51.032;6.356;2022-07-23T07:49:41;22.33;;;13.77;;
10295;SDS011;5193;51.032;6.356;2022-07-23T07:52:07;20.97;;;12.63;;
10295;SDS011;5193;51.032;6.356;2022-07-23T07:54:33;21.67;;;13.87;;
10295;SDS011;5193;51.032;6.356;2022-07-23T07:56:58;17.73;;;11.87;;
10295;SDS011;5193;51.032;6.356;2022-07-23T07:59:24;15.87;;;11.50;;
10295;SDS011;5193;51.032;6.356;2022-07-23T08:01:50;17.40;;;12.13;;
10295;SDS011;5193;51.032;6.356;2022-07-23T08:04:16;13.33;;;9.60;;
10295;SDS011;5193;51.032;6.356;2022-07-23T08:06:42;17.70;;;9.00;;
10295;SDS011;5193;51.032;6.356;2022-07-23T08:09:08;15.17;;;9.07;;
10295;SDS011;5193;51.032;6.356;2022-07-23T08:11:34;14.30;;;9.27;;
10295;SDS011;5193;51.032;6.356;2022-07-23T08:14:00;11.67;;;8.57;;
10295;SDS011;5193;51.032;6.356;2022-07-23T08:16:25;14.60;;;9.50;;
10295;SDS011;5193;51.032;6.356;2022-07-23T08:18:51;16.07;;;10.43;;
10295;SDS011;5193;51.032;6.356;2022-07-23T08:21:16;15.73;;;9.17;;
10295;SDS011;5193;51.032;6.356;2022-07-23T08:23:43;12.77;;;7.70;;
10295;SDS011;5193;51.032;6.356;2022-07-23T08:26:09;13.53;;;7.90;;
10295;SDS011;5193;51.032;6.356;2022-07-23T08:28:34;13.50;;;7.53;;
10295;SDS011;5193;51.032;6.356;2022-07-23T08:31:00;12.43;;;7.63;;
10295;SDS011;5193;51.032;6.356;2022-07-23T08:33:26;9.47;;;6.77;;
10295;SDS011;5193;51.032;6.356;2022-07-23T08:35:52;10.90;;;6.97;;
10295;SDS011;5193;51.032;6.356;2022-07-23T08:38:21;11.77;;;7.20;;
10295;SDS011;5193;51.032;6.356;2022-07-23T08:40:51;8.97;;;6.73;;
10295;SDS011;5193;51.032;6.356;2022-07-23T08:43:19;8.70;;;7.27;;
10295;SDS011;5193;51.032;6.356;2022-07-23T08:45:47;15.67;;;6.87;;
10295;SDS011;5193;51.032;6.356;2022-07-23T08:48:16;10.53;;;6.57;;
10295;SDS011;5193;51.032;6.356;2022-07-23T08:50:45;10.10;;;7.50;;
10295;SDS011;5193;51.032;6.356;2022-07-23T08:53:13;10.03;;;7.30;;
10295;SDS011;5193;51.032;6.356;2022-07-23T08:55:40;8.37;;;6.53;;
10295;SDS011;5193;51.032;6.356;2022-07-23T08:58:08;12.27;;;7.03;;
10295;SDS011;5193;51.032;6.356;2022-07-23T09:00:33;8.40;;;6.87;;
10295;SDS011;5193;51.032;6.356;2022-07-23T09:02:59;12.57;;;7.17;;
10295;SDS011;5193;51.032;6.356;2022-07-23T09:05:25;8.63;;;6.03;;
10295;SDS011;5193;51.032;6.356;2022-07-23T09:13:24;6.90;;;6.20;;
10295;SDS011;5193;51.032;6.356;2022-07-23T09:15:53;10.67;;;6.50;;
10295;SDS011;5193;51.032;6.356;2022-07-23T09:18:34;10.07;;;5.80;;
10295;SDS011;5193;51.032;6.356;2022-07-23T09:21:20;7.73;;;6.17;;
10295;SDS011;5193;51.032;6.356;2022-07-23T09:23:58;9.97;;;6.13;;
10295;SDS011;5193;51.032;6.356;2022-07-23T09:26:43;10.00;;;6.33;;
10295;SDS011;5193;51.032;6.356;2022-07-23T09:31:48;7.63;;;6.17;;
10295;SDS011;5193;51.032;6.356;2022-07-23T09:37:10;7.37;;;5.23;;
10295;SDS011;5193;51.032;6.356;2022-07-23T09:39:38;7.83;;;5.50;;
10295;SDS011;5193;51.032;6.356;2022-07-23T09:44:45;7.70;;;5.33;;
10295;SDS011;5193;51.032;6.356;2022-07-23T09:47:14;6.03;;;4.87;;
10295;SDS011;5193;51.032;6.356;2022-07-23T09:49:56;7.47;;;5.67;;
10295;SDS011;5193;51.032;6.356;2022-07-23T09:52:40;7.77;;;5.53;;
10295;SDS011;5193;51.032;6.356;2022-07-23T09:55:08;6.73;;;5.20;;
10295;SDS011;5193;51.032;6.356;2022-07-23T09:57:34;8.03;;;5.50;;
10295;SDS011;5193;51.032;6.356;2022-07-23T10:00:01;8.10;;;5.60;;
10295;SDS011;5193;51.032;6.356;2022-07-23T10:02:29;7.87;;;5.83;;
10295;SDS011;5193;51.032;6.356;2022-07-23T10:04:57;8.07;;;5.33;;
10295;SDS011;5193;51.032;6.356;2022-07-23T10:07:23;5.33;;;4.40;;
10295;SDS011;5193;51.032;6.356;2022-07-23T10:09:51;5.93;;;4.77;;
10295;SDS011;5193;51.032;6.356;2022-07-23T10:12:18;6.00;;;5.03;;
10295;SDS011;5193;51.032;6.356;2022-07-23T10:14:45;9.47;;;5.17;;
10295;SDS011;5193;51.032;6.356;2022-07-23T10:17:11;6.87;;;4.47;;
10295;SDS011;5193;51.032;6.356;2022-07-23T10:19:37;6.63;;;4.50;;
10295;SDS011;5193;51.032;6.356;2022-07-23T10:22:08;3.90;;;3.50;;
10295;SDS011;5193;51.032;6.356;2022-07-23T10:27:37;9.33;;;4.53;;
10295;SDS011;5193;51.032;6.356;2022-07-23T10:38:48;5.10;;;3.80;;
10295;SDS011;5193;51.032;6.356;2022-07-23T10:41:33;7.03;;;3.77;;
10295;SDS011;5193;51.032;6.356;2022-07-23T10:44:10;4.33;;;3.47;;
10295;SDS011;5193;51.032;6.356;2022-07-23T10:49:34;5.70;;;3.70;;
10295;SDS011;5193;51.032;6.356;2022-07-23T10:52:20;6.37;;;3.80;;
10295;SDS011;5193;51.032;6.356;2022-07-23T10:54:51;5.23;;;3.57;;
10295;SDS011;5193;51.032;6.356;2022-07-23T10:57:18;5.40;;;3.17;;
10295;SDS011;5193;51.032;6.356;2022-07-23T11:02:27;4.85;;;2.65;;
10295;SDS011;5193;51.032;6.356;2022-07-23T11:04:56;3.27;;;2.30;;
10295;SDS011;5193;51.032;6.356;2022-07-23T11:07:25;4.10;;;2.33;;
10295;SDS011;5193;51.032;6.356;2022-07-23T11:09:51;3.23;;;2.00;;
10295;SDS011;5193;51.032;6.356;2022-07-23T11:17:27;2.75;;;2.15;;
10295;SDS011;5193;51.032;6.356;2022-07-23T11:22:35;3.08;;;2.25;;
10295;SDS011;5193;51.032;6.356;2022-07-23T11:25:01;4.20;;;2.00;;
10295;SDS011;5193;51.032;6.356;2022-07-23T11:27:43;4.30;;;2.40;;
10295;SDS011;5193;51.032;6.356;2022-07-23T11:30:11;3.55;;;1.90;;
10295;SDS011;5193;51.032;6.356;2022-07-23T11:32:52;2.20;;;2.00;;
10295;SDS011;5193;51.032;6.356;2022-07-23T11:35:19;2.30;;;1.70;;
10295;SDS011;5193;51.032;6.356;2022-07-23T11:37:53;3.25;;;1.98;;
10295;SDS011;5193;51.032;6.356;2022-07-23T11:40:27;3.42;;;1.90;;
10295;SDS011;5193;51.032;6.356;2022-07-23T11:42:57;2.05;;;1.50;;
10295;SDS011;5193;51.032;6.356;2022-07-23T11:45:38;1.55;;;1.45;;
10295;SDS011;5193;51.032;6.356;2022-07-23T11:48:09;3.67;;;1.90;;
10295;SDS011;5193;51.032;6.356;2022-07-23T11:50:54;1.95;;;1.70;;
10295;SDS011;5193;51.032;6.356;2022-07-23T11:53:32;1.60;;;1.50;;
10295;SDS011;5193;51.032;6.356;2022-07-23T11:58:35;3.00;;;1.73;;
10295;SDS011;5193;51.032;6.356;2022-07-23T12:01:01;2.50;;;1.50;;
10295;SDS011;5193;51.032;6.356;2022-07-23T12:03:27;2.10;;;1.80;;
10295;SDS011;5193;51.032;6.356;2022-07-23T12:05:56;1.88;;;1.38;;
10295;SDS011;5193;51.032;6.356;2022-07-23T12:08:22;1.83;;;1.70;;
10295;SDS011;5193;51.032;6.356;2022-07-23T12:10:48;1.52;;;1.42;;
10295;SDS011;5193;51.032;6.356;2022-07-23T12:13:16;2.38;;;1.60;;
10295;SDS011;5193;51.032;6.356;2022-07-23T12:15:44;1.77;;;1.52;;
10295;SDS011;5193;51.032;6.356;2022-07-23T12:18:16;1.73;;;1.63;;
10295;SDS011;5193;51.032;6.356;2022-07-23T12:20:46;3.30;;;2.05;;
10295;SDS011;5193;51.032;6.356;2022-07-23T12:23:16;2.88;;;1.90;;
10295;SDS011;5193;51.032;6.356;2022-07-23T12:25:44;4.15;;;1.90;;
10295;SDS011;5193;51.032;6.356;2022-07-23T12:28:15;2.92;;;1.70;;
10295;SDS011;5193;51.032;6.356;2022-07-23T12:30:51;4.25;;;1.80;;
10295;SDS011;5193;51.032;6.356;2022-07-23T12:35:52;3.17;;;1.83;;
10295;SDS011;5193;51.032;6.356;2022-07-23T12:38:20;2.08;;;1.80;;
10295;SDS011;5193;51.032;6.356;2022-07-23T12:40:51;1.73;;;1.60;;
10295;SDS011;5193;51.032;6.356;2022-07-23T12:46:05;6.07;;;1.85;;
10295;SDS011;5193;51.032;6.356;2022-07-23T12:48:37;1.70;;;1.50;;
10295;SDS011;5193;51.032;6.356;2022-07-23T12:53:48;3.17;;;1.80;;
10295;SDS011;5193;51.032;6.356;2022-07-23T12:56:16;2.50;;;1.90;;
10295;SDS011;5193;51.032;6.356;2022-07-23T13:01:10;3.55;;;2.00;;
10295;SDS011;5193;51.032;6.356;2022-07-23T13:04:00;1.88;;;1.77;;
10295;SDS011;5193;51.032;6.356;2022-07-23T13:06:30;3.72;;;1.73;;
10295;SDS011;5193;51.032;6.356;2022-07-23T13:09:05;3.88;;;2.00;;
10295;SDS011;5193;51.032;6.356;2022-07-23T13:11:32;2.95;;;1.90;;
10295;SDS011;5193;51.032;6.356;2022-07-23T13:13:58;1.77;;;1.52;;
10295;SDS011;5193;51.032;6.356;2022-07-23T13:16:25;2.42;;;1.50;;
10295;SDS011;5193;51.032;6.356;2022-07-23T13:18:51;7.60;;;2.72;;
10295;SDS011;5193;51.032;6.356;2022-07-23T13:21:17;3.40;;;1.60;;
10295;SDS011;5193;51.032;6.356;2022-07-23T13:23:43;1.65;;;1.50;;
10295;SDS011;5193;51.032;6.356;2022-07-23T13:26:09;3.42;;;1.85;;
10295;SDS011;5193;51.032;6.356;2022-07-23T13:28:34;1.70;;;1.50;;
10295;SDS011;5193;51.032;6.356;2022-07-23T13:31:00;2.20;;;1.80;;
10295;SDS011;5193;51.032;6.356;2022-07-23T13:33:26;2.22;;;1.73;;
10295;SDS011;5193;51.032;6.356;2022-07-23T13:35:52;2.42;;;1.58;;
10295;SDS011;5193;51.032;6.356;2022-07-23T13:38:18;1.80;;;1.70;;
10295;SDS011;5193;51.032;6.356;2022-07-23T13:40:47;2.08;;;1.80;;
10295;SDS011;5193;51.032;6.356;2022-07-23T13:43:15;2.40;;;2.20;;
10295;SDS011;5193;51.032;6.356;2022-07-23T13:45:42;4.20;;;1.60;;
10295;SDS011;5193;51.032;6.356;2022-07-23T13:48:09;3.25;;;1.60;;
10295;SDS011;5193;51.032;6.356;2022-07-23T13:50:36;1.58;;;1.48;;
10295;SDS011;5193;51.032;6.356;2022-07-23T13:53:03;2.72;;;1.73;;
10295;SDS011;5193;51.032;6.356;2022-07-23T13:55:30;4.47;;;1.70;;
10295;SDS011;5193;51.032;6.356;2022-07-23T13:57:56;2.05;;;1.73;;
10295;SDS011;5193;51.032;6.356;2022-07-23T14:00:23;3.70;;;1.50;;
10295;SDS011;5193;51.032;6.356;2022-07-23T14:02:49;2.88;;;1.92;;
10295;SDS011;5193;51.032;6.356;2022-07-23T14:05:15;2.70;;;1.75;;
10295;SDS011;5193;51.032;6.356;2022-07-23T14:07:40;2.55;;;1.70;;
10295;SDS011;5193;51.032;6.356;2022-07-23T14:10:07;2.17;;;1.70;;
10295;SDS011;5193;51.032;6.356;2022-07-23T14:12:33;2.33;;;1.73;;
10295;SDS011;5193;51.032;6.356;2022-07-23T14:14:59;2.80;;;2.17;;
10295;SDS011;5193;51.032;6.356;2022-07-23T14:34:36;2.47;;;1.90;;
10295;SDS011;5193;51.032;6.356;2022-07-23T14:37:02;2.95;;;1.83;;
10295;SDS011;5193;51.032;6.356;2022-07-23T14:39:28;3.38;;;1.90;;
10295;SDS011;5193;51.032;6.356;2022-07-23T14:41:53;2.95;;;1.63;;
10295;SDS011;5193;51.032;6.356;2022-07-23T14:44:19;1.70;;;1.60;;
10295;SDS011;5193;51.032;6.356;2022-07-23T14:46:45;1.60;;;1.50;;
10295;SDS011;5193;51.032;6.356;2022-07-23T14:49:10;6.13;;;1.92;;
10295;SDS011;5193;51.032;6.356;2022-07-23T14:51:36;3.80;;;1.70;;
10295;SDS011;5193;51.032;6.356;2022-07-23T14:54:02;2.72;;;1.90;;
10295;SDS011;5193;51.032;6.356;2022-07-23T14:56:29;2.05;;;1.80;;
10295;SDS011;5193;51.032;6.356;2022-07-23T14:58:55;3.38;;;1.98;;
10295;SDS011;5193;51.032;6.356;2022-07-23T15:01:21;2.42;;;1.60;;
10295;SDS011;5193;51.032;6.356;2022-07-23T15:03:47;2.70;;;1.75;;
10295;SDS011;5193;51.032;6.356;2022-07-23T15:06:13;1.98;;;1.70;;
10295;SDS011;5193;51.032;6.356;2022-07-23T15:08:40;2.53;;;1.77;;
10295;SDS011;5193;51.032;6.356;2022-07-23T15:11:05;4.80;;;1.75;;
10295;SDS011;5193;51.032;6.356;2022-07-23T15:13:33;2.20;;;2.00;;
10295;SDS011;5193;51.032;6.356;2022-07-23T15:16:00;1.95;;;1.70;;
10295;SDS011;5193;51.032;6.356;2022-07-23T15:18:25;2.78;;;1.60;;
10295;SDS011;5193;51.032;6.356;2022-07-23T15:20:51;2.28;;;1.65;;
10295;SDS011;5193;51.032;6.356;2022-07-23T15:23:16;2.63;;;1.58;;
10295;SDS011;5193;51.032;6.356;2022-07-23T15:25:42;4.20;;;1.92;;
10295;SDS011;5193;51.032;6.356;2022-07-23T15:28:07;2.35;;;2.00;;
10295;SDS011;5193;51.032;6.356;2022-07-23T15:30:33;2.55;;;1.80;;
10295;SDS011;5193;51.032;6.356;2022-07-23T15:32:59;2.00;;;1.80;;
10295;SDS011;5193;51.032;6.356;2022-07-23T15:35:24;2.10;;;1.90;;
10295;SDS011;5193;51.032;6.356;2022-07-23T15:37:50;2.08;;;1.80;;
10295;SDS011;5193;51.032;6.356;2022-07-23T15:40:16;2.47;;;1.85;;
10295;SDS011;5193;51.032;6.356;2022-07-23T15:42:41;2.83;;;2.00;;
10295;SDS011;5193;51.032;6.356;2022-07-23T15:45:07;2.70;;;1.75;;
10295;SDS011;5193;51.032;6.356;2022-07-23T15:47:33;2.13;;;1.63;;
10295;SDS011;5193;51.032;6.356;2022-07-23T15:49:59;2.72;;;2.20;;
10295;SDS011;5193;51.032;6.356;2022-07-23T15:52:24;3.83;;;1.77;;
10295;SDS011;5193;51.032;6.356;2022-07-23T15:54:50;1.98;;;1.77;;
10295;SDS011;5193;51.032;6.356;2022-07-23T15:57:16;2.55;;;1.70;;
10295;SDS011;5193;51.032;6.356;2022-07-23T15:59:41;5.50;;;2.00;;
10295;SDS011;5193;51.032;6.356;2022-07-23T16:02:07;2.65;;;1.98;;
10295;SDS011;5193;51.032;6.356;2022-07-23T16:04:33;2.95;;;2.03;;
10295;SDS011;5193;51.032;6.356;2022-07-23T16:06:59;1.98;;;1.80;;